Tarrytown, New York
Current Conditions -  °F | °C
As of 9:56 AM on Friday 31 Oct 2014 (Local Time) from KHPN Reporting Station
Broken Clouds Broken Clouds  
Wind Chill: 43°   Ceiling: 4700
Heat Index: 46°   Visibility: 10mi
Dew Point: 33°   Wind: 6mph
Humidity: 61%   Direction: 360°N
Pressure: 30"   Gusts: NA
Location:  41.08°N, 73.86°W
Report Text: KHPN 311356Z 36005KT 10SM BKN047 08/01 A3000 RMK AO2 SLP163 T00780006
Loading
Personal Weather Stations






























Interactive Weather Map
Tropical Storm Tracking
New forecast layout! Learn more

10-Day Weather Forecast

Advertisements
Track Severe Weather on mobile